Latest Weather Observations for Mount Magnet Airport

IDW60801

Issued at 12:43 pm WST Tuesday 10 December 2019 (issued every 10 minutes, with the page automatically refreshed every 10 minutes)

About weather observations | Map of weather stations | Latest weather observations for WA | Other Formats
Station Details ID: 007600 Name: MOUNT MAGNET AERO Lat: -28.12 Lon: 117.84 Height: 407.0 m
Data from the previous 72 hours. | See also: Recent months at Mount Magnet Airport
Date/Time
WST
Temp
°C
App
Temp
°C
Dew
Point
°C
Rel
Hum
%
Delta-T
°C
Wind Press
QNH
hPa
Press
MSL
hPa
Rain since
9am
mm
Dir  Spd
km/h
Gust
km/h
Spd
kts
Gust
kts
10/12:30pm 38.1 33.4 6.0 14 18.0 NE 20 30 11 16 1013.8 1011.0 0.0
10/12:00pm 37.6 32.8 5.6 14 17.8 E 20 37 11 20 1014.3 1011.4 0.0
10/11:30am 37.4 32.4 6.4 15 17.5 E 22 35 12 19 1014.7 1011.8 0.0
10/11:00am 36.1 31.6 6.3 16 16.6 ENE 19 28 10 15 1015.2 1012.4 0.0
10/10:30am 36.2 31.8 6.4 16 16.7 E 19 37 10 20 1015.6 1012.8 0.0
10/10:00am 34.9 29.5 6.2 17 15.9 ENE 24 35 13 19 1015.9 1013.1 0.0
10/09:30am 33.5 28.4 5.9 18 15.1 E 22 32 12 17 1016.0 1013.2 0.0
10/09:00am 32.4 26.3 6.6 20 14.2 ENE 28 39 15 21 1016.2 1013.4 0.0
10/08:30am 31.7 25.5 6.0 20 14.0 ENE 28 39 15 21 1016.3 1013.5 0.0
10/08:00am 30.6 23.6 5.8 21 13.4 E 32 39 17 21 1016.4 1013.6 0.0
10/07:30am 30.1 23.5 6.1 22 13.0 E 30 43 16 23 1016.1 1013.3 0.0
10/07:00am 28.9 22.6 5.7 23 12.4 E 28 37 15 20 1015.9 1013.1 0.0
10/06:30am 27.9 22.1 6.1 25 11.6 E 26 37 14 20 1015.7 1012.9 0.0
10/06:00am 27.2 22.0 5.5 25 11.4 E 22 32 12 17 1015.7 1012.9 0.0
10/05:30am 26.7 22.9 5.6 26 11.1 E 15 20 8 11 1015.6 1012.8 0.0
10/05:00am 26.7 22.5 5.6 26 11.1 E 17 22 9 12 1015.2 1012.4 0.0
10/04:30am 27.0 23.2 5.9 26 11.2 E 15 20 8 11 1015.0 1012.2 0.0
10/04:00am 27.4 23.2 5.6 25 11.5 ESE 17 24 9 13 1015.0 1012.2 0.0
10/03:30am 27.7 23.5 5.9 25 11.6 ESE 17 24 9 13 1014.8 1012.0 0.0
10/03:00am 28.2 23.6 5.7 24 11.9 E 19 28 10 15 1014.6 1011.7 0.0
10/02:30am 28.5 23.8 6.0 24 12.0 E 20 30 11 16 1014.5 1011.6 0.0
10/02:00am 28.9 23.4 5.7 23 12.4 E 24 33 13 18 1014.4 1011.5 0.0
10/01:30am 29.2 24.1 6.0 23 12.4 E 22 33 12 18 1014.3 1011.4 0.0
10/01:00am 29.4 24.3 6.1 23 12.5 E 22 30 12 16 1014.5 1011.6 0.0
10/12:30am 29.7 25.3 6.4 23 12.6 ESE 19 24 10 13 1014.8 1012.0 0.0
10/12:00am 29.9 25.5 6.5 23 12.7 ESE 19 28 10 15 1014.9 1012.1 0.0
 
Date/Time
WST
Temp
°C
App
Temp
°C
Dew
Point
°C
Rel
Hum
%
Delta-T
°C
Wind Press
QNH
hPa
Press
MSL
hPa
Rain since
9am
mm
Dir  Spd
km/h
Gust
km/h
Spd
kts
Gust
kts
09/11:30pm 30.3 25.2 6.2 22 13.1 ESE 22 32 12 17 1014.9 1012.1 0.0
09/11:00pm 30.8 26.1 6.0 21 13.4 SE 20 26 11 14 1014.9 1012.1 0.0
09/10:30pm 31.1 26.3 5.5 20 13.8 SE 20 30 11 16 1015.1 1012.3 0.0
09/10:00pm 31.7 26.9 4.5 18 14.4 SE 19 24 10 13 1015.1 1012.3 0.0
09/09:30pm 32.2 27.7 4.1 17 14.9 SE 17 22 9 12 1015.0 1012.2 0.0
09/09:00pm 32.5 27.5 3.5 16 15.2 SE 19 24 10 13 1014.8 1012.0 0.0
09/08:30pm 33.2 28.9 3.1 15 15.7 SSE 15 20 8 11 1014.7 1011.8 0.0
09/08:00pm 33.9 29.5 2.7 14 16.3 SE 15 20 8 11 1014.6 1011.7 0.0
09/07:30pm 34.7 30.6 2.3 13 16.9 SE 13 19 7 10 1014.4 1011.5 0.0
09/07:00pm 35.1 30.3 2.6 13 17.0 SE 17 26 9 14 1014.1 1011.2 0.0
09/06:30pm 35.6 31.0 1.8 12 17.6 SE 15 22 8 12 1013.7 1010.9 0.0
09/06:00pm 36.2 32.1 2.3 12 17.8 ESE 13 22 7 12 1013.5 1010.7 0.0
09/05:30pm 36.1 32.0 2.2 12 17.8 ESE 13 26 7 14 1013.4 1010.6 0.0
09/05:00pm 36.1 31.6 2.2 12 17.8 ESE 15 28 8 15 1013.4 1010.6 0.0
09/04:30pm 36.4 32.1 1.2 11 18.2 E 13 20 7 11 1013.4 1010.6 0.0
09/04:00pm 35.5 32.3 2.9 13 17.2 SSW 9 17 5 9 1013.5 1010.7 0.0
09/03:30pm 36.6 32.8 3.7 13 17.7 SSW 13 24 7 13 1013.7 1010.9 0.0
09/03:00pm 36.8 32.0 2.8 12 18.1 ESE 17 28 9 15 1014.2 1011.3 0.0
09/02:30pm 35.1 29.9 3.6 14 16.8 ESE 20 32 11 17 1014.6 1011.7 0.0
09/02:00pm 35.0 30.9 4.5 15 16.5 E 15 28 8 15 1014.8 1012.0 0.0
09/01:30pm 35.2 30.4 4.7 15 16.5 ESE 19 46 10 25 1015.2 1012.4 0.0
09/01:26pm 36.0 31.5 4.3 14 17.2 ESE 17 46 9 25 1015.2 1012.4 0.0
09/01:00pm 34.2 28.9 4.8 16 15.9 E 22 35 12 19 1015.7 1012.9 0.0
09/12:30pm 33.8 29.7 6.2 18 15.2 ESE 17 30 9 16 1016.0 1013.2 0.0
09/12:00pm 32.4 28.4 6.6 20 14.2 ESE 17 32 9 17 1016.4 1013.6 0.0
09/11:30am 33.1 28.8 7.9 21 14.2 SE 20 32 11 17 1016.9 1014.0 0.0
09/11:00am 32.1 28.1 8.4 23 13.4 SE 19 30 10 16 1017.2 1014.4 0.0
09/10:30am 31.6 27.5 8.6 24 13.0 ESE 20 33 11 18 1017.4 1014.6 0.0
09/10:00am 30.2 25.2 8.0 25 12.4 E 24 43 13 23 1017.7 1014.9 0.0
09/09:30am 28.7 24.2 8.4 28 11.3 E 22 35 12 19 1017.9 1015.1 0.0
09/09:00am 27.6 22.6 8.0 29 10.8 ESE 24 33 13 18 1018.2 1015.4 0.0
09/08:30am 26.5 20.7 8.0 31 10.1 ESE 28 39 15 21 1018.1 1015.3 0.0
09/08:00am 25.9 19.6 7.5 31 9.9 E 30 39 16 21 1018.0 1015.2 0.0
09/07:30am 25.3 18.4 6.5 30 10.0 ESE 32 44 17 24 1017.8 1015.0 0.0
09/07:15am 24.6 18.1 6.4 31 9.6 ESE 30 48 16 26 1017.9 1015.1 0.0
09/07:00am 24.2 17.9 5.5 30 9.6 ESE 28 37 15 20 1017.8 1015.0 0.0
09/06:30am 23.2 17.1 4.7 30 9.4 SE 26 35 14 19 1017.6 1014.8 0.0
09/06:00am 21.7 17.3 2.9 29 9.1 SSE 15 24 8 13 1017.6 1014.8 0.0
09/05:30am 20.0 15.7 1.0 28 8.8 SSW 13 15 7 8 1017.4 1014.6 0.0
09/05:00am 19.8 15.4 0.3 27 8.8 S 13 15 7 8 1017.0 1014.1 0.0
09/04:30am 20.2 15.4 0.1 26 9.1 S 15 17 8 9 1016.7 1013.8 0.0
09/04:00am 20.6 16.2 0.4 26 9.2 S 13 15 7 8 1016.3 1013.5 0.0
09/03:30am 21.1 16.3 0.3 25 9.5 S 15 17 8 9 1016.3 1013.5 0.0
09/03:00am 21.7 17.0 0.8 25 9.7 S 15 17 8 9 1016.3 1013.5 0.0
09/02:30am 22.3 17.7 1.3 25 9.9 S 15 20 8 11 1016.4 1013.6 0.0
09/02:00am 22.8 17.9 1.8 25 10.0 S 17 24 9 13 1016.6 1013.7 0.0
09/01:30am 23.3 18.4 2.2 25 10.2 S 17 20 9 11 1016.4 1013.6 0.0
09/01:00am 23.8 19.0 2.6 25 10.3 S 17 26 9 14 1016.4 1013.6 0.0
09/12:30am 24.4 19.2 2.5 24 10.7 S 19 22 10 12 1016.6 1013.7 0.0
09/12:00am 24.9 19.6 3.0 24 10.8 S 20 26 11 14 1016.8 1013.9 0.0
 
Date/Time
WST
Temp
°C
App
Temp
°C
Dew
Point
°C
Rel
Hum
%
Delta-T
°C
Wind Press
QNH
hPa
Press
MSL
hPa
Rain since
9am
mm
Dir  Spd
km/h
Gust
km/h
Spd
kts
Gust
kts
08/11:30pm 25.5 19.0 2.9 23 11.2 S 26 32 14 17 1016.8 1013.9 0.0
08/11:00pm 25.9 20.2 2.6 22 11.5 S 22 32 12 17 1016.8 1013.9 0.0
08/10:30pm 26.3 20.5 2.3 21 11.9 S 22 30 12 16 1016.9 1014.0 0.0
08/10:00pm 26.8 21.3 2.0 20 12.2 SSW 20 24 11 13 1017.0 1014.1 0.0
08/09:30pm 26.9 21.9 1.3 19 12.5 SSW 17 20 9 11 1016.9 1014.0 0.0
08/09:00pm 27.4 22.6 0.2 17 13.0 SSW 15 19 8 10 1016.6 1013.7 0.0
08/08:30pm 28.0 23.0 -1.0 15 13.7 SSW 15 17 8 9 1016.2 1013.4 0.0
08/08:00pm 28.7 23.7 -1.4 14 14.2 SSW 15 19 8 10 1016.1 1013.3 0.0
08/07:30pm 29.2 24.1 -2.0 13 14.6 SSW 15 24 8 13 1015.8 1013.0 0.0
08/07:00pm 29.6 24.0 -2.8 12 15.0 SSW 17 26 9 14 1015.5 1012.7 0.0
08/06:30pm 30.4 24.4 -3.3 11 15.5 SSW 19 26 10 14 1015.0 1012.2 0.0
08/06:00pm 30.4 25.0 -4.6 10 15.8 SSW 15 28 8 15 1014.7 1011.8 0.0
08/05:30pm 30.8 25.0 -4.3 10 16.0 SSW 17 28 9 15 1014.4 1011.5 0.0
08/05:00pm 31.2 25.3 -5.4 9 16.4 SW 17 26 9 14 1014.2 1011.3 0.0
08/04:30pm 30.5 24.9 -5.9 9 16.1 SW 15 24 8 13 1014.3 1011.4 0.0
08/04:00pm 30.4 24.5 -6.0 9 16.0 SSW 17 30 9 16 1014.4 1011.5 0.0
08/03:30pm 30.7 24.2 -5.8 9 16.2 WSW 20 33 11 18 1014.6 1011.7 0.0
08/03:00pm 30.4 25.0 -4.6 10 15.8 WSW 15 24 8 13 1014.8 1012.0 0.0
08/02:30pm 30.0 24.2 -4.9 10 15.6 S 17 26 9 14 1014.9 1012.1 0.0
08/02:00pm 29.0 24.6 -2.2 13 14.5 SSW 11 24 6 13 1015.1 1012.3 0.0
08/01:30pm 28.5 24.2 -1.6 14 14.1 W 11 19 6 10 1015.3 1012.5 0.0
08/01:00pm 27.4 22.2 0.2 17 13.0 SW 17 28 9 15 1015.7 1012.9 0.0
08/12:30pm 29.3 26.0 2.5 18 13.6 S 9 22 5 12 1015.9 1013.1 0.0
08/12:00pm 27.1 22.7 2.9 21 12.1 SSE 15 26 8 14 1016.0 1013.2 0.0
08/11:30am 26.1 21.4 3.4 23 11.4 WSW 17 26 9 14 1016.3 1013.5 0.0
08/11:00am 25.7 21.6 4.2 25 10.9 SSE 15 26 8 14 1016.8 1013.9 0.0
08/10:30am 24.2 20.7 5.5 30 9.7 SE 13 22 7 12 1017.1 1014.3 0.0
08/10:00am 23.6 20.6 6.0 32 9.1 S 11 22 6 12 1017.3 1014.5 0.0
08/09:30am 23.5 19.9 6.7 34 8.8 SSW 15 24 8 13 1017.5 1014.7 0.0
08/09:00am 21.7 18.6 7.2 39 7.6 S 13 19 7 10 1017.6 1014.8 0.0
08/08:30am 21.3 17.5 7.5 41 7.3 SE 17 30 9 16 1017.7 1014.9 0.0
08/08:00am 20.5 17.2 8.2 45 6.5 SE 15 22 8 12 1017.7 1014.9 0.0
08/07:30am 19.8 15.7 8.8 49 5.9 S 20 28 11 15 1017.5 1014.7 0.0
08/07:00am 19.8 15.0 8.8 49 5.9 S 24 32 13 17 1017.2 1014.4 0.0
08/06:30am 19.0 14.8 9.8 55 5.0 S 22 30 12 16 1017.3 1014.5 0.0
08/06:00am 18.6 14.0 9.7 56 4.8 S 24 32 13 17 1016.9 1014.0 0.0
08/05:30am 18.6 14.1 10.2 58 4.6 S 24 32 13 17 1016.0 1013.2 0.0
08/05:00am 18.7 14.8 10.8 60 4.4 SSW 22 28 12 15 1015.6 1012.8 0.0
08/04:30am 19.2 15.8 10.5 57 4.8 SSW 19 26 10 14 1015.2 1012.4 0.0
08/04:00am 19.5 15.0 10.0 54 5.2 SSW 24 30 13 16 1014.8 1012.0 0.0
08/03:30am 20.1 15.9 9.7 51 5.7 SSW 22 30 12 16 1014.6 1011.7 0.0
08/03:00am 20.6 16.0 9.5 49 6.0 SSW 24 32 13 17 1014.3 1011.4 0.0
08/02:30am 21.1 16.9 11.2 53 5.6 SSW 24 32 13 17 1014.2 1011.3 0.0
08/02:00am 21.5 17.1 11.8 54 5.5 SSW 26 32 14 17 1014.1 1011.2 0.0
08/01:30am 22.2 18.1 12.7 55 5.5 SSW 26 39 14 21 1014.1 1011.2 0.0
08/01:00am 22.6 19.0 13.1 55 5.6 SW 24 32 13 17 1014.2 1011.3 0.0
08/12:30am 23.2 18.9 11.9 49 6.5 SW 26 33 14 18 1014.4 1011.5 0.0
08/12:00am 23.9 19.8 11.3 45 7.2 SW 24 33 13 18 1014.5 1011.6 0.0
 
Date/Time
WST
Temp
°C
App
Temp
°C
Dew
Point
°C
Rel
Hum
%
Delta-T
°C
Wind Press
QNH
hPa
Press
MSL
hPa
Rain since
9am
mm
Dir  Spd
km/h
Gust
km/h
Spd
kts
Gust
kts
07/11:30pm 24.5 19.9 11.1 43 7.7 SW 26 35 14 19 1014.6 1011.7 0.0
07/11:00pm 25.2 20.3 9.9 38 8.6 SW 26 33 14 18 1014.5 1011.6 0.0
07/10:30pm 25.7 20.3 9.5 36 9.1 SW 28 37 15 20 1014.5 1011.6 0.0
07/10:00pm 26.6 20.9 9.9 35 9.4 SW 30 41 16 22 1014.2 1011.3 0.0
07/09:30pm 27.9 22.3 8.7 30 10.7 SW 28 37 15 20 1013.7 1010.9 0.0
07/09:08pm 28.5 21.8 8.2 28 11.3 SW 33 52 18 28 1013.4 1010.6 0.0
07/09:00pm 28.8 22.0 7.9 27 11.6 SW 33 46 18 25 1013.2 1010.4 0.0
07/08:30pm 30.0 23.3 7.2 24 12.5 SW 32 44 17 24 1013.0 1010.2 0.0
07/08:00pm 30.9 23.6 4.6 19 13.9 WSW 32 41 17 22 1012.7 1009.9 0.0
07/07:30pm 31.5 24.2 4.3 18 14.4 WSW 32 44 17 24 1012.2 1009.3 0.0
07/07:00pm 32.2 24.5 2.3 15 15.4 WSW 32 41 17 22 1011.9 1009.0 0.0
07/06:30pm 33.4 25.0 1.3 13 16.3 WSW 35 46 19 25 1011.2 1008.4 0.0
07/06:00pm 34.7 26.6 1.1 12 17.2 WSW 33 44 18 24 1010.6 1007.8 0.0
07/05:30pm 35.3 27.1 -0.9 10 18.0 WSW 32 46 17 25 1010.2 1007.3 0.0
07/05:00pm 36.3 28.2 -0.2 10 18.5 WSW 32 46 17 25 1009.8 1006.9 0.0
07/04:35pm 37.1 29.5 0.4 10 18.8 WSW 30 46 16 25 1009.6 1006.7 0.0
07/04:30pm 36.3 27.6 -0.2 10 18.4 WSW 35 54 19 29 1009.6 1006.7 0.0
07/04:00pm 37.0 29.0 0.4 10 18.8 W 32 56 17 30 1009.6 1006.7 0.0
07/03:34pm 37.6 29.7 0.8 10 19.0 WSW 32 50 17 27 1009.5 1006.6 0.0
07/03:30pm 37.3 29.3 0.6 10 18.9 W 32 48 17 26 1009.5 1006.6 0.0
07/03:24pm 37.5 28.8 -0.7 9 19.3 W 35 50 19 27 1009.5 1006.6 0.0
07/03:00pm 37.5 28.4 -0.7 9 19.3 W 37 46 20 25 1009.5 1006.6 0.0
07/02:58pm 37.9 29.2 -0.4 9 19.5 W 35 46 19 25 1009.4 1006.5 0.0
07/02:41pm 37.8 29.5 -0.5 9 19.4 WSW 33 52 18 28 1009.8 1006.9 0.0
07/02:30pm 37.6 29.8 -0.6 9 19.3 SW 30 50 16 27 1009.6 1006.7 0.0
07/02:00pm 37.2 29.2 0.5 10 18.9 WSW 32 50 17 27 1009.8 1006.9 0.0
07/01:43pm 37.7 30.3 -0.6 9 19.4 WSW 28 52 15 28 1009.9 1007.0 0.0
07/01:30pm 37.1 29.1 0.4 10 18.8 WSW 32 44 17 24 1010.2 1007.3 0.0
07/01:09pm 37.4 30.2 0.7 10 18.9 W 28 46 15 25 1010.4 1007.6 0.0
07/01:00pm 36.6 28.9 0.1 10 18.6 WSW 30 44 16 24 1010.4 1007.6 0.0

Other formats

Comma delimited format used in spreadsheet applications
http://www.bom.gov.au/fwo/IDW60801/IDW60801.94429.axf

JavaScript Object Notation format (JSON) in row-major order
http://www.bom.gov.au/fwo/IDW60801/IDW60801.94429.json

Data quality

Most of these data are generated automatically and are frequently updated. Quality checks on data are not normally performed. It is possible for incorrect values to appear. Refer to information at About Latest Weather Observations and please check the disclaimer before using these data.